createdAt,value
2022-10-17T00:02:23.641Z,88.26
2022-10-17T00:04:55.683Z,88.20
2022-10-17T00:07:28.433Z,88.37
2022-10-17T00:10:00.680Z,88.25
2022-10-17T00:12:34.259Z,88.40
2022-10-17T00:15:10.299Z,88.29
2022-10-17T00:17:42.934Z,88.33
2022-10-17T00:20:16.253Z,88.38
2022-10-17T00:22:48.201Z,88.26
2022-10-17T00:25:20.701Z,88.29
2022-10-17T00:27:52.462Z,88.25
2022-10-17T00:30:25.175Z,88.16
2022-10-17T00:32:57.153Z,88.31
2022-10-17T00:35:28.990Z,88.30
2022-10-17T00:38:00.824Z,88.42
2022-10-17T00:40:32.800Z,88.52
2022-10-17T00:43:04.514Z,88.52
2022-10-17T00:45:37.055Z,88.53
2022-10-17T00:48:13.837Z,88.60
2022-10-17T00:50:49.570Z,88.62
2022-10-17T00:53:21.923Z,88.63
2022-10-17T00:55:55.981Z,88.59
2022-10-17T00:58:27.784Z,88.59
2022-10-17T01:00:59.792Z,88.54
2022-10-17T01:03:31.873Z,88.60
2022-10-17T01:06:03.605Z,88.61
2022-10-17T01:08:35.697Z,88.76
2022-10-17T01:11:15.255Z,88.90
2022-10-17T01:13:53.116Z,89.05
2022-10-17T01:16:35.602Z,89.08
2022-10-17T01:19:27.781Z,89.17
2022-10-17T01:22:04.936Z,89.09
2022-10-17T01:24:57.073Z,89.13
2022-10-17T01:27:50.758Z,89.30
2022-10-17T01:31:13.778Z,89.36
2022-10-17T01:33:55.048Z,89.71
2022-10-17T01:36:42.222Z,89.82
2022-10-17T01:39:28.107Z,89.97
2022-10-17T01:42:08.151Z,90.30
2022-10-17T01:44:48.399Z,90.61
2022-10-17T01:47:24.552Z,90.88
2022-10-17T01:50:01.133Z,90.82
2022-10-17T01:52:39.749Z,90.74
2022-10-17T01:55:15.166Z,90.89
2022-10-17T01:57:51.099Z,90.89
2022-10-17T02:00:25.883Z,90.96
2022-10-17T02:03:01.258Z,90.91
2022-10-17T02:05:36.518Z,90.88
2022-10-17T02:08:09.514Z,90.97
2022-10-17T02:10:45.155Z,90.90
2022-10-17T02:13:28.419Z,90.99
2022-10-17T02:16:14.073Z,91.01
2022-10-17T02:19:03.229Z,91.09
2022-10-17T02:21:45.921Z,91.02
2022-10-17T02:24:28.849Z,91.13
2022-10-17T02:27:09.299Z,91.30
2022-10-17T02:29:47.818Z,91.20
2022-10-17T02:32:24.957Z,91.18
2022-10-17T02:35:02.025Z,91.13
2022-10-17T02:37:35.651Z,91.05
2022-10-17T02:40:12.101Z,90.88
2022-10-17T02:42:46.520Z,90.94
2022-10-17T02:45:18.809Z,90.99
2022-10-17T02:48:00.204Z,90.83
2022-10-17T02:50:40.046Z,90.94
2022-10-17T02:53:16.370Z,90.94
2022-10-17T02:55:55.232Z,91.01
2022-10-17T02:58:33.557Z,91.11
2022-10-17T03:01:09.015Z,91.19
2022-10-17T03:03:40.842Z,91.20
2022-10-17T03:06:12.929Z,91.23
2022-10-17T03:08:44.769Z,91.43
2022-10-17T03:11:16.670Z,91.36
2022-10-17T03:13:48.917Z,91.28
2022-10-17T03:16:21.553Z,91.22
2022-10-17T03:18:53.535Z,91.22
2022-10-17T03:21:25.385Z,91.08
2022-10-17T03:23:57.296Z,91.12
2022-10-17T03:26:30.193Z,91.18
2022-10-17T03:29:02.799Z,91.23
2022-10-17T03:31:34.974Z,91.14
2022-10-17T03:34:08.143Z,91.15
2022-10-17T03:36:40.372Z,91.26
2022-10-17T03:39:12.327Z,91.21
2022-10-17T03:41:44.159Z,91.17
2022-10-17T03:44:16.403Z,91.22
2022-10-17T03:46:48.408Z,91.12
2022-10-17T03:49:20.288Z,91.13
2022-10-17T03:51:52.111Z,91.15
2022-10-17T03:54:24.504Z,91.27
2022-10-17T03:59:29.443Z,91.28
2022-10-17T04:02:07.102Z,91.36
2022-10-17T04:04:39.206Z,91.28
2022-10-17T04:07:11.905Z,91.30
2022-10-17T04:09:46.340Z,91.39
2022-10-17T04:12:22.668Z,91.42
2022-10-17T04:14:54.891Z,91.36
2022-10-17T04:17:27.133Z,91.51
2022-10-17T04:20:00.036Z,91.44
2022-10-17T04:22:32.168Z,91.47
2022-10-17T04:25:04.536Z,91.46
2022-10-17T04:27:41.680Z,91.39
2022-10-17T04:30:14.007Z,91.29
2022-10-17T04:32:46.061Z,91.41
2022-10-17T04:35:27.424Z,91.35
2022-10-17T04:38:04.325Z,91.36
2022-10-17T04:40:37.489Z,91.45
2022-10-17T04:43:09.510Z,91.49
2022-10-17T04:45:41.429Z,91.49
2022-10-17T04:48:13.279Z,91.74
2022-10-17T04:50:53.756Z,91.62
2022-10-17T04:53:36.274Z,91.64
2022-10-17T04:56:13.210Z,91.66
2022-10-17T04:58:46.107Z,91.66
2022-10-17T05:01:21.164Z,91.59
2022-10-17T05:03:56.445Z,91.39
2022-10-17T05:06:29.125Z,91.53
2022-10-17T05:09:30.420Z,91.43
2022-10-17T05:12:04.341Z,91.35
2022-10-17T05:14:38.969Z,91.31
2022-10-17T05:17:10.935Z,91.37
2022-10-17T05:19:43.534Z,91.49
2022-10-17T05:22:15.466Z,91.44
2022-10-17T05:24:47.274Z,91.34
2022-10-17T05:27:19.051Z,91.26
2022-10-17T05:29:51.299Z,91.29
2022-10-17T05:32:28.694Z,91.24
2022-10-17T05:35:00.870Z,91.26
2022-10-17T05:37:33.291Z,91.29
2022-10-17T05:40:09.365Z,91.26
2022-10-17T05:42:41.155Z,91.28
2022-10-17T05:45:14.135Z,91.23
2022-10-17T05:47:46.022Z,91.11
2022-10-17T05:50:21.028Z,91.22
2022-10-17T05:53:13.484Z,91.29
2022-10-17T05:55:58.871Z,91.36
2022-10-17T06:01:39.159Z,91.44
2022-10-17T06:04:11.163Z,91.45
2022-10-17T06:06:43.308Z,91.42
2022-10-17T06:09:15.463Z,91.56
2022-10-17T06:11:50.093Z,91.63
2022-10-17T06:14:23.731Z,91.71
2022-10-17T06:16:59.280Z,91.69
2022-10-17T06:19:35.964Z,91.85
2022-10-17T06:22:08.147Z,91.88
2022-10-17T06:24:40.462Z,91.98
2022-10-17T06:27:12.373Z,91.99
2022-10-17T06:29:46.069Z,91.97
2022-10-17T06:32:18.227Z,92.14
2022-10-17T06:34:52.021Z,92.17
2022-10-17T06:37:23.818Z,92.34
2022-10-17T06:39:55.708Z,92.49
2022-10-17T06:42:29.340Z,92.57
2022-10-17T06:45:13.377Z,92.67
2022-10-17T06:48:00.499Z,92.65
2022-10-17T06:50:52.729Z,92.89
2022-10-17T06:53:29.844Z,93.00
2022-10-17T06:56:31.510Z,93.13
2022-10-17T06:59:23.706Z,93.33
2022-10-17T07:02:06.771Z,93.45
2022-10-17T07:04:40.931Z,93.46
2022-10-17T07:07:12.827Z,93.44
2022-10-17T07:09:44.656Z,93.62
2022-10-17T07:12:16.718Z,93.62
2022-10-17T07:14:50.664Z,93.56
2022-10-17T07:17:22.660Z,93.67
2022-10-17T07:19:54.519Z,93.81
2022-10-17T07:22:26.893Z,93.88
2022-10-17T07:25:01.877Z,93.81
2022-10-17T07:28:04.130Z,93.92
2022-10-17T07:30:37.239Z,93.96
2022-10-17T07:33:14.161Z,94.08
2022-10-17T07:35:46.033Z,93.99
2022-10-17T07:38:17.829Z,94.14
2022-10-17T07:40:59.037Z,94.16
2022-10-17T07:43:31.580Z,94.25
2022-10-17T07:46:06.443Z,94.38
2022-10-17T07:48:38.913Z,94.45
2022-10-17T07:51:11.790Z,94.40
2022-10-17T07:53:47.964Z,94.48
2022-10-17T07:56:24.615Z,94.42
2022-10-17T08:01:29.769Z,94.38
2022-10-17T08:04:01.735Z,94.30
2022-10-17T08:06:33.563Z,94.43
2022-10-17T08:09:05.575Z,94.30
2022-10-17T08:11:37.430Z,94.42
2022-10-17T08:14:09.315Z,94.39
2022-10-17T08:16:41.561Z,94.42
2022-10-17T08:19:13.380Z,94.41
2022-10-17T08:21:47.027Z,94.44
2022-10-17T08:24:18.953Z,94.50
2022-10-17T08:26:51.901Z,94.48
2022-10-17T08:29:24.231Z,94.53
2022-10-17T08:32:00.821Z,94.57
2022-10-17T08:34:33.485Z,94.64
2022-10-17T08:37:05.418Z,94.81
2022-10-17T08:39:37.388Z,94.80
2022-10-17T08:42:31.244Z,94.91
2022-10-17T08:45:17.684Z,95.19
2022-10-17T08:47:53.960Z,95.42
2022-10-17T08:50:31.952Z,95.37
2022-10-17T08:53:11.208Z,95.37
2022-10-17T08:55:46.846Z,95.35
2022-10-17T08:58:21.837Z,95.23
2022-10-17T09:01:03.518Z,95.10
2022-10-17T09:03:54.118Z,95.04
2022-10-17T09:06:30.193Z,94.90
2022-10-17T09:09:16.812Z,94.77
2022-10-17T09:12:01.655Z,94.66
2022-10-17T09:14:55.008Z,94.40
2022-10-17T09:17:38.241Z,94.28
2022-10-17T09:20:15.974Z,94.26
2022-10-17T09:25:42.835Z,93.67
2022-10-17T09:28:19.449Z,93.38
2022-10-17T09:30:57.073Z,93.33
2022-10-17T09:33:35.425Z,93.15
2022-10-17T09:36:18.820Z,92.84
2022-10-17T09:38:53.799Z,92.79
2022-10-17T09:41:46.584Z,92.75
2022-10-17T09:44:24.606Z,92.85
2022-10-17T09:47:07.695Z,92.43
2022-10-17T09:49:41.429Z,92.34
2022-10-17T09:52:17.535Z,92.26
2022-10-17T09:54:51.251Z,92.06
2022-10-17T09:57:24.012Z,91.85
2022-10-17T10:00:02.151Z,91.75
2022-10-17T10:02:40.819Z,91.57
2022-10-17T10:05:21.057Z,91.35
2022-10-17T10:08:07.011Z,91.07
2022-10-17T10:10:42.972Z,90.80
2022-10-17T10:13:21.895Z,90.54
2022-10-17T10:15:53.912Z,90.26
2022-10-17T10:18:35.874Z,89.78
2022-10-17T10:21:13.957Z,89.60
2022-10-17T10:24:03.425Z,89.53
2022-10-17T10:26:40.236Z,89.33
2022-10-17T10:29:24.948Z,89.04
2022-10-17T10:31:59.896Z,89.01
2022-10-17T10:34:35.755Z,88.39
2022-10-17T10:37:17.745Z,88.20
2022-10-17T10:39:52.779Z,87.94
2022-10-17T10:42:28.595Z,87.78
2022-10-17T10:45:03.961Z,87.56
2022-10-17T10:47:36.162Z,87.63
2022-10-17T10:50:30.425Z,87.38
2022-10-17T10:53:19.651Z,87.07
2022-10-17T10:55:55.796Z,86.77
2022-10-17T10:58:38.892Z,86.41
2022-10-17T11:01:20.364Z,86.04
2022-10-17T11:04:03.849Z,85.89
2022-10-17T11:06:42.139Z,85.64
2022-10-17T11:09:23.959Z,85.49
2022-10-17T11:12:00.631Z,85.30
2022-10-17T11:14:43.464Z,84.72
2022-10-17T11:17:24.453Z,84.44
2022-10-17T11:20:04.917Z,84.56
2022-10-17T11:22:41.282Z,83.88
2022-10-17T11:25:25.891Z,83.69
2022-10-17T11:28:03.688Z,82.87
2022-10-17T11:30:45.832Z,82.67
2022-10-17T11:33:24.547Z,82.88
2022-10-17T11:36:01.100Z,82.82
2022-10-17T11:38:43.093Z,82.56
2022-10-17T11:41:18.397Z,82.66
2022-10-17T11:43:56.189Z,82.11
2022-10-17T11:46:30.534Z,81.37
2022-10-17T11:49:17.409Z,81.23
2022-10-17T11:52:00.316Z,80.87
2022-10-17T11:54:39.094Z,80.75
2022-10-17T11:57:37.490Z,80.75
2022-10-17T12:00:23.283Z,80.85
2022-10-17T12:03:06.418Z,80.91
2022-10-17T12:05:46.673Z,80.96
2022-10-17T12:08:29.225Z,80.81
2022-10-17T12:11:08.937Z,80.54
2022-10-17T12:13:56.428Z,80.39
2022-10-17T12:16:47.655Z,80.47
2022-10-17T12:19:32.661Z,80.12
2022-10-17T12:22:23.645Z,80.07
2022-10-17T12:25:03.890Z,79.91
2022-10-17T12:27:46.054Z,79.75
2022-10-17T12:30:27.445Z,79.75
2022-10-17T12:33:22.346Z,79.76
2022-10-17T12:36:14.907Z,79.74
2022-10-17T12:38:50.085Z,79.60
2022-10-17T12:41:57.840Z,79.18
2022-10-17T12:44:39.395Z,79.12
2022-10-17T12:47:40.043Z,78.83
2022-10-17T12:50:45.916Z,78.64
2022-10-17T12:53:23.999Z,78.45
2022-10-17T12:56:02.252Z,78.13
2022-10-17T12:58:35.705Z,77.84
2022-10-17T13:01:24.238Z,77.73
2022-10-17T13:03:57.986Z,77.93
2022-10-17T13:06:32.086Z,77.74
2022-10-17T13:09:06.814Z,77.90
2022-10-17T13:11:40.710Z,77.90
2022-10-17T13:14:17.568Z,77.66
2022-10-17T13:16:57.490Z,77.29
2022-10-17T13:19:32.539Z,76.92
2022-10-17T13:22:07.171Z,76.86
2022-10-17T13:24:41.422Z,76.68
2022-10-17T13:27:27.842Z,76.74
2022-10-17T13:30:02.611Z,76.96
2022-10-17T13:32:42.123Z,76.97
2022-10-17T13:35:17.187Z,76.76
2022-10-17T13:37:53.806Z,76.33
2022-10-17T13:40:44.677Z,76.18
2022-10-17T13:43:24.358Z,76.14
2022-10-17T13:46:13.677Z,76.10
2022-10-17T13:48:52.482Z,76.06
2022-10-17T13:51:24.734Z,75.99
2022-10-17T13:53:57.338Z,76.14
2022-10-17T13:56:31.125Z,76.13
2022-10-17T13:59:18.978Z,75.93
2022-10-17T14:01:52.254Z,75.88
2022-10-17T14:04:24.130Z,75.81
2022-10-17T14:06:56.627Z,75.52
2022-10-17T14:09:31.126Z,75.67
2022-10-17T14:12:07.809Z,75.66
2022-10-17T14:15:08.827Z,75.73
2022-10-17T14:17:35.007Z,75.73
2022-10-17T14:20:48.225Z,75.69
2022-10-17T14:23:21.999Z,75.75
2022-10-17T14:26:10.939Z,76.05
2022-10-17T14:28:45.641Z,75.81
2022-10-17T14:31:31.021Z,75.73
2022-10-17T14:34:04.135Z,75.81
2022-10-17T14:36:42.134Z,76.02
2022-10-17T14:39:23.282Z,75.99
2022-10-17T14:41:55.622Z,75.92
2022-10-17T14:44:30.560Z,76.01
2022-10-17T14:47:30.717Z,75.95
2022-10-17T14:50:21.124Z,75.78
2022-10-17T14:53:04.349Z,76.02
2022-10-17T14:55:38.327Z,76.27
2022-10-17T14:58:25.389Z,76.30
2022-10-17T15:00:57.824Z,76.51
2022-10-17T15:03:29.841Z,76.63
2022-10-17T15:06:16.511Z,76.63
2022-10-17T15:08:48.550Z,76.75
2022-10-17T15:11:20.560Z,76.84
2022-10-17T15:13:52.461Z,76.95
2022-10-17T15:16:25.933Z,76.91
2022-10-17T15:18:58.481Z,76.83
2022-10-17T15:21:39.485Z,76.98
2022-10-17T15:24:15.122Z,76.93
2022-10-17T15:26:47.055Z,77.09
2022-10-17T15:29:18.837Z,77.45
2022-10-17T15:31:50.711Z,77.40
2022-10-17T15:34:22.857Z,77.53
2022-10-17T15:36:55.144Z,77.58
2022-10-17T15:39:27.086Z,77.59
2022-10-17T15:41:59.289Z,77.71
2022-10-17T15:44:31.550Z,77.85
2022-10-17T15:47:04.411Z,78.08
2022-10-17T15:49:36.576Z,77.94
2022-10-17T15:52:09.939Z,78.07
2022-10-17T15:54:41.704Z,78.18
2022-10-17T15:57:19.275Z,78.22
2022-10-17T15:59:52.299Z,78.27
2022-10-17T16:02:25.389Z,78.53
2022-10-17T16:04:57.225Z,78.58
2022-10-17T16:07:51.124Z,78.71
2022-10-17T16:10:38.235Z,78.88
2022-10-17T16:13:17.324Z,79.03
2022-10-17T16:15:49.669Z,79.23
2022-10-17T16:18:52.102Z,79.26
2022-10-17T16:24:14.047Z,79.62
2022-10-17T16:26:45.940Z,79.74
2022-10-17T16:29:17.823Z,79.95
2022-10-17T16:31:49.745Z,79.82
2022-10-17T16:34:21.783Z,79.96
2022-10-17T16:36:54.111Z,80.17
2022-10-17T16:42:04.196Z,80.27
2022-10-17T16:44:38.932Z,80.35
2022-10-17T16:47:11.642Z,80.49
2022-10-17T16:49:45.327Z,80.65
2022-10-17T16:52:17.901Z,80.62
2022-10-17T16:57:35.979Z,81.11
2022-10-17T17:00:11.928Z,81.09
2022-10-17T17:02:43.804Z,81.26
2022-10-17T17:05:16.587Z,81.43
2022-10-17T17:07:48.805Z,81.68
2022-10-17T17:10:20.999Z,81.67
2022-10-17T17:12:56.766Z,81.89
2022-10-17T17:15:29.065Z,81.88
2022-10-17T17:18:05.354Z,82.04
2022-10-17T17:20:37.763Z,82.26
2022-10-17T17:23:23.347Z,82.32
2022-10-17T17:26:02.076Z,82.43
2022-10-17T17:28:35.383Z,82.34
2022-10-17T17:31:10.155Z,82.39
2022-10-17T17:33:43.719Z,82.47
2022-10-17T17:36:19.967Z,82.60
2022-10-17T17:38:54.719Z,82.62
2022-10-17T17:41:27.003Z,82.54
2022-10-17T17:43:59.231Z,82.61
2022-10-17T17:46:31.288Z,82.62
2022-10-17T17:49:03.457Z,82.61
2022-10-17T17:51:37.715Z,82.66
2022-10-17T17:54:12.622Z,82.48
2022-10-17T17:56:44.525Z,82.66
2022-10-17T17:59:16.446Z,82.71
2022-10-17T18:01:48.357Z,82.68
2022-10-17T18:04:20.236Z,82.68
2022-10-17T18:06:59.589Z,82.78
2022-10-17T18:09:31.455Z,82.85
2022-10-17T18:12:03.354Z,82.72
2022-10-17T18:14:35.563Z,82.91
2022-10-17T18:17:07.355Z,82.92
2022-10-17T18:19:39.263Z,82.96
2022-10-17T18:22:13.940Z,83.05
2022-10-17T18:24:46.028Z,83.00
2022-10-17T18:27:18.135Z,83.10
2022-10-17T18:29:50.532Z,83.26
2022-10-17T18:32:22.686Z,83.18
2022-10-17T18:34:54.727Z,83.29
2022-10-17T18:37:26.625Z,83.33
2022-10-17T18:39:58.503Z,83.44
2022-10-17T18:42:30.646Z,83.53
2022-10-17T18:45:05.698Z,83.70
2022-10-17T18:47:40.032Z,83.81
2022-10-17T18:50:12.601Z,83.65
2022-10-17T18:52:45.389Z,83.83
2022-10-17T18:55:20.575Z,83.87
2022-10-17T18:57:53.177Z,84.02
2022-10-17T19:00:25.006Z,84.02
2022-10-17T19:02:59.009Z,84.08
2022-10-17T19:05:33.882Z,84.24
2022-10-17T19:08:05.781Z,84.39
2022-10-17T19:10:37.812Z,84.47
2022-10-17T19:13:10.415Z,84.45
2022-10-17T19:15:42.319Z,84.47
2022-10-17T19:18:14.389Z,84.64
2022-10-17T19:20:47.080Z,84.78
2022-10-17T19:23:18.946Z,84.76
2022-10-17T19:25:50.767Z,84.95
2022-10-17T19:28:22.582Z,85.02
2022-10-17T19:30:57.379Z,85.12
2022-10-17T19:33:29.882Z,85.09
2022-10-17T19:36:03.729Z,85.07
2022-10-17T19:38:35.837Z,85.21
2022-10-17T19:41:10.482Z,85.26
2022-10-17T19:43:44.467Z,85.25
2022-10-17T19:46:46.790Z,85.47
2022-10-17T19:49:19.375Z,85.58
2022-10-17T19:51:51.282Z,85.54
2022-10-17T19:54:23.579Z,85.55
2022-10-17T19:56:55.369Z,85.84
2022-10-17T19:59:28.437Z,85.75
2022-10-17T20:02:00.487Z,85.83
2022-10-17T20:04:32.860Z,85.77
2022-10-17T20:07:04.912Z,85.68
2022-10-17T20:09:36.754Z,85.68
2022-10-17T20:12:08.690Z,85.50
2022-10-17T20:14:41.244Z,85.59
2022-10-17T20:17:13.185Z,85.59
2022-10-17T20:19:45.241Z,85.55
2022-10-17T20:22:17.082Z,85.49
2022-10-17T20:24:48.909Z,85.37
2022-10-17T20:27:23.163Z,85.35
2022-10-17T20:30:01.937Z,85.60
2022-10-17T20:32:39.654Z,85.43
2022-10-17T20:35:12.097Z,85.48
2022-10-17T20:37:44.109Z,85.42
2022-10-17T20:40:34.128Z,85.53
2022-10-17T20:43:07.672Z,85.40
2022-10-17T20:45:51.360Z,85.46
2022-10-17T20:48:24.141Z,85.34
2022-10-17T20:50:56.807Z,85.39
2022-10-17T20:53:37.286Z,85.42
2022-10-17T20:56:14.294Z,85.54
2022-10-17T20:58:46.105Z,85.61
2022-10-17T21:01:17.903Z,85.63
2022-10-17T21:03:50.205Z,85.58
2022-10-17T21:06:22.623Z,85.52
2022-10-17T21:08:56.832Z,85.49
2022-10-17T21:11:30.565Z,85.29
2022-10-17T21:14:04.528Z,85.51
2022-10-17T21:16:37.848Z,85.69
2022-10-17T21:19:10.895Z,85.55
2022-10-17T21:21:45.111Z,85.76
2022-10-17T21:24:20.563Z,85.64
2022-10-17T21:26:57.575Z,85.90
2022-10-17T21:29:29.449Z,86.17
2022-10-17T21:32:01.228Z,86.08
2022-10-17T21:34:33.088Z,86.32
2022-10-17T21:37:05.048Z,86.47
2022-10-17T21:39:36.775Z,86.61
2022-10-17T21:42:08.580Z,86.48
2022-10-17T21:44:40.423Z,86.52
2022-10-17T21:47:14.048Z,86.48
2022-10-17T21:49:45.853Z,86.67
2022-10-17T21:52:17.628Z,86.65
2022-10-17T21:54:49.513Z,86.73
2022-10-17T21:57:21.197Z,86.65
2022-10-17T21:59:53.036Z,86.70
2022-10-17T22:02:24.908Z,86.75
2022-10-17T22:04:56.621Z,86.73
2022-10-17T22:07:28.788Z,86.69
2022-10-17T22:10:00.637Z,86.73
2022-10-17T22:12:32.926Z,86.84
2022-10-17T22:15:05.359Z,86.82
2022-10-17T22:17:37.109Z,86.70
2022-10-17T22:20:09.922Z,86.73
2022-10-17T22:22:41.888Z,86.74
2022-10-17T22:25:13.588Z,86.77
2022-10-17T22:27:45.640Z,86.81
2022-10-17T22:30:17.618Z,86.83
2022-10-17T22:32:49.452Z,86.87
2022-10-17T22:35:21.339Z,86.83
2022-10-17T22:37:53.082Z,86.86
2022-10-17T22:40:24.797Z,87.14
2022-10-17T22:42:56.553Z,87.11
2022-10-17T22:45:28.475Z,87.17
2022-10-17T22:48:00.281Z,87.17
2022-10-17T22:50:32.054Z,87.39
2022-10-17T22:53:03.838Z,87.47
2022-10-17T22:55:35.653Z,87.31
2022-10-17T22:58:07.423Z,87.48
2022-10-17T23:00:41.345Z,87.44
2022-10-17T23:03:13.100Z,87.39
2022-10-17T23:05:45.549Z,87.52
2022-10-17T23:08:18.909Z,87.49
2022-10-17T23:10:50.994Z,87.56
2022-10-17T23:13:22.997Z,87.54
2022-10-17T23:15:56.286Z,87.60
2022-10-17T23:21:06.079Z,87.62
2022-10-17T23:23:37.963Z,87.70
2022-10-17T23:26:11.979Z,87.68
2022-10-17T23:28:44.621Z,87.82
2022-10-17T23:31:18.321Z,87.94
2022-10-17T23:33:51.137Z,87.91
2022-10-17T23:36:23.558Z,87.96
2022-10-17T23:38:57.877Z,88.11
2022-10-17T23:41:30.633Z,88.15
2022-10-17T23:44:02.587Z,87.94
2022-10-17T23:46:34.587Z,88.05
2022-10-17T23:49:07.026Z,87.93
2022-10-17T23:51:38.732Z,88.07
2022-10-17T23:54:10.464Z,88.06
2022-10-17T23:56:42.357Z,88.00
2022-10-17T23:59:14.243Z,88.12
